sensor_id;sensor_type;location;lat;lon;timestamp;pressure;altitude;pressure_sealevel;temperature;humidity
59190;BME280;50749;51.636;4.948;2023-02-13T00:00:20;103781.81;;;17.48;57.58
59190;BME280;50749;51.636;4.948;2023-02-13T00:03:06;103785.69;;;17.47;57.84
59190;BME280;50749;51.636;4.948;2023-02-13T00:05:32;103786.53;;;17.48;57.77
59190;BME280;50749;51.636;4.948;2023-02-13T00:07:58;103786.53;;;17.48;57.65
59190;BME280;50749;51.636;4.948;2023-02-13T00:10:24;103786.81;;;17.46;57.83
59190;BME280;50749;51.636;4.948;2023-02-13T00:12:50;103785.16;;;17.45;57.38
59190;BME280;50749;51.636;4.948;2023-02-13T00:15:16;103781.56;;;17.44;57.56
59190;BME280;50749;51.636;4.948;2023-02-13T00:17:41;103779.91;;;17.43;57.59
59190;BME280;50749;51.636;4.948;2023-02-13T00:20:09;103776.31;;;17.43;57.46
59190;BME280;50749;51.636;4.948;2023-02-13T00:22:36;103781.00;;;17.42;57.69
59190;BME280;50749;51.636;4.948;2023-02-13T00:25:03;103771.91;;;17.42;57.75
59190;BME280;50749;51.636;4.948;2023-02-13T00:27:29;103774.66;;;17.42;57.59
59190;BME280;50749;51.636;4.948;2023-02-13T00:29:55;103766.66;;;17.40;57.41
59190;BME280;50749;51.636;4.948;2023-02-13T00:32:21;103771.34;;;17.40;57.47
59190;BME280;50749;51.636;4.948;2023-02-13T00:34:47;103764.69;;;17.41;57.64
59190;BME280;50749;51.636;4.948;2023-02-13T00:37:13;103768.56;;;17.40;57.22
59190;BME280;50749;51.636;4.948;2023-02-13T00:39:39;103761.41;;;17.39;57.57
59190;BME280;50749;51.636;4.948;2023-02-13T00:42:04;103758.91;;;17.37;57.13
59190;BME280;50749;51.636;4.948;2023-02-13T00:44:30;103758.91;;;17.37;57.19
59190;BME280;50749;51.636;4.948;2023-02-13T00:46:56;103758.09;;;17.37;57.33
59190;BME280;50749;51.636;4.948;2023-02-13T00:49:22;103754.47;;;17.36;57.29
59190;BME280;50749;51.636;4.948;2023-02-13T00:51:48;103754.47;;;17.36;57.32
59190;BME280;50749;51.636;4.948;2023-02-13T00:54:14;103763.06;;;17.35;57.41
59190;BME280;50749;51.636;4.948;2023-02-13T00:56:39;103755.63;;;17.35;56.99
59190;BME280;50749;51.636;4.948;2023-02-13T00:59:06;103759.47;;;17.34;57.38
59190;BME280;50749;51.636;4.948;2023-02-13T01:01:32;103755.09;;;17.33;57.46
59190;BME280;50749;51.636;4.948;2023-02-13T01:03:58;103751.47;;;17.33;57.38
59190;BME280;50749;51.636;4.948;2023-02-13T01:06:24;103746.22;;;17.31;57.39
59190;BME280;50749;51.636;4.948;2023-02-13T01:08:50;103755.34;;;17.32;57.33
59190;BME280;50749;51.636;4.948;2023-02-13T01:11:16;103751.22;;;17.29;57.55
59190;BME280;50749;51.636;4.948;2023-02-13T01:13:44;103749.53;;;17.28;57.36
59190;BME280;50749;51.636;4.948;2023-02-13T01:16:10;103750.66;;;17.27;57.19
59190;BME280;50749;51.636;4.948;2023-02-13T01:18:37;103745.16;;;17.27;57.12
59190;BME280;50749;51.636;4.948;2023-02-13T01:21:06;103745.16;;;17.27;57.38
59190;BME280;50749;51.636;4.948;2023-02-13T01:23:34;103745.16;;;17.27;56.85
59190;BME280;50749;51.636;4.948;2023-02-13T01:26:03;103746.25;;;17.26;57.17
59190;BME280;50749;51.636;4.948;2023-02-13T01:28:29;103741.84;;;17.25;56.98
59190;BME280;50749;51.636;4.948;2023-02-13T01:30:56;103744.59;;;17.25;57.03
59190;BME280;50749;51.636;4.948;2023-02-13T01:33:23;103738.22;;;17.24;57.15
59190;BME280;50749;51.636;4.948;2023-02-13T01:35:49;103739.34;;;17.23;57.02
59190;BME280;50749;51.636;4.948;2023-02-13T01:38:16;103742.94;;;17.24;56.89
59190;BME280;50749;51.636;4.948;2023-02-13T01:40:50;103742.94;;;17.24;57.18
59190;BME280;50749;51.636;4.948;2023-02-13T01:43:17;103734.66;;;17.24;56.95
59190;BME280;50749;51.636;4.948;2023-02-13T01:45:44;103738.50;;;17.23;56.93
59190;BME280;50749;51.636;4.948;2023-02-13T01:48:15;103737.16;;;17.20;57.02
59190;BME280;50749;51.636;4.948;2023-02-13T01:50:46;103732.44;;;17.21;56.95
59190;BME280;50749;51.636;4.948;2023-02-13T01:53:34;103731.63;;;17.20;57.06
59190;BME280;50749;51.636;4.948;2023-02-13T01:56:07;103739.09;;;17.20;56.92
59190;BME280;50749;51.636;4.948;2023-02-13T01:58:37;103735.50;;;17.19;57.21
59190;BME280;50749;51.636;4.948;2023-02-13T02:01:05;103736.34;;;17.20;57.15
59190;BME280;50749;51.636;4.948;2023-02-13T02:03:40;103735.50;;;17.19;57.12
59190;BME280;50749;51.636;4.948;2023-02-13T02:06:10;103739.38;;;17.18;56.90
59190;BME280;50749;51.636;4.948;2023-02-13T02:08:37;103730.25;;;17.18;56.67
59190;BME280;50749;51.636;4.948;2023-02-13T02:11:10;103736.91;;;17.17;57.08
59190;BME280;50749;51.636;4.948;2023-02-13T02:13:40;103740.75;;;17.16;56.91
59190;BME280;50749;51.636;4.948;2023-02-13T02:16:06;103738.00;;;17.16;56.72
59190;BME280;50749;51.636;4.948;2023-02-13T02:18:32;103741.03;;;17.14;57.13
59190;BME280;50749;51.636;4.948;2023-02-13T02:21:18;103733.88;;;17.13;56.90
59190;BME280;50749;51.636;4.948;2023-02-13T02:27:06;103731.94;;;17.14;56.92
59190;BME280;50749;51.636;4.948;2023-02-13T02:32:46;103734.16;;;17.12;56.66
59190;BME280;50749;51.636;4.948;2023-02-13T02:35:47;103722.25;;;17.11;56.79
59190;BME280;50749;51.636;4.948;2023-02-13T02:38:40;103728.91;;;17.10;57.03
59190;BME280;50749;51.636;4.948;2023-02-13T02:41:13;103726.41;;;17.08;56.60
59190;BME280;50749;51.636;4.948;2023-02-13T02:50:28;103722.00;;;17.07;56.68
59190;BME280;50749;51.636;4.948;2023-02-13T02:58:18;103714.81;;;17.06;57.16
59190;BME280;50749;51.636;4.948;2023-02-13T03:01:06;103710.41;;;17.05;56.79
59190;BME280;50749;51.636;4.948;2023-02-13T03:03:54;103717.03;;;17.04;56.99
59190;BME280;50749;51.636;4.948;2023-02-13T03:06:53;103710.69;;;17.04;56.58
59190;BME280;50749;51.636;4.948;2023-02-13T03:09:25;103706.25;;;17.03;56.95
59190;BME280;50749;51.636;4.948;2023-02-13T03:12:16;103707.38;;;17.02;56.57
59190;BME280;50749;51.636;4.948;2023-02-13T03:15:04;103711.22;;;17.01;56.71
59190;BME280;50749;51.636;4.948;2023-02-13T03:17:29;103702.94;;;17.01;56.95
59190;BME280;50749;51.636;4.948;2023-02-13T03:20:45;103709.59;;;17.00;56.76
59190;BME280;50749;51.636;4.948;2023-02-13T03:23:35;103708.75;;;16.99;56.60
59190;BME280;50749;51.636;4.948;2023-02-13T03:32:30;103707.13;;;16.98;56.72
59190;BME280;50749;51.636;4.948;2023-02-13T03:38:24;103707.41;;;16.97;56.72
59190;BME280;50749;51.636;4.948;2023-02-13T03:41:02;103708.50;;;16.96;56.40
59190;BME280;50749;51.636;4.948;2023-02-13T03:46:23;103709.91;;;16.93;56.57
59190;BME280;50749;51.636;4.948;2023-02-13T03:48:51;103703.53;;;16.93;56.23
59190;BME280;50749;51.636;4.948;2023-02-13T03:51:44;103702.72;;;16.92;56.65
59190;BME280;50749;51.636;4.948;2023-02-13T03:54:27;103701.03;;;16.91;56.26
59190;BME280;50749;51.636;4.948;2023-02-13T03:57:18;103711.28;;;16.90;56.26
59190;BME280;50749;51.636;4.948;2023-02-13T04:00:08;103705.75;;;16.90;56.49
59190;BME280;50749;51.636;4.948;2023-02-13T04:02:45;103710.47;;;16.90;55.95
59190;BME280;50749;51.636;4.948;2023-02-13T04:05:24;103706.03;;;16.89;56.28
59190;BME280;50749;51.636;4.948;2023-02-13T04:07:51;103702.44;;;16.88;55.96
59190;BME280;50749;51.636;4.948;2023-02-13T04:10:18;103699.16;;;16.86;55.90
59190;BME280;50749;51.636;4.948;2023-02-13T04:13:13;103699.97;;;16.87;56.04
59190;BME280;50749;51.636;4.948;2023-02-13T04:15:51;103703.81;;;16.86;56.20
59190;BME280;50749;51.636;4.948;2023-02-13T04:18:22;103698.56;;;16.84;56.08
59190;BME280;50749;51.636;4.948;2023-02-13T04:20:49;103699.66;;;16.83;56.18
59190;BME280;50749;51.636;4.948;2023-02-13T04:23:16;103697.72;;;16.84;56.42
59190;BME280;50749;51.636;4.948;2023-02-13T04:25:45;103705.78;;;16.85;56.23
59190;BME280;50749;51.636;4.948;2023-02-13T04:28:11;103697.75;;;16.89;56.37
59190;BME280;50749;51.636;4.948;2023-02-13T04:30:37;103703.53;;;16.93;55.79
59190;BME280;50749;51.636;4.948;2023-02-13T04:33:03;103696.34;;;16.97;55.95
59190;BME280;50749;51.636;4.948;2023-02-13T04:35:29;103698.81;;;17.03;55.18
59190;BME280;50749;51.636;4.948;2023-02-13T04:37:55;103694.06;;;17.09;55.25
59190;BME280;50749;51.636;4.948;2023-02-13T04:40:21;103700.41;;;17.15;55.76
59190;BME280;50749;51.636;4.948;2023-02-13T04:42:47;103693.75;;;17.21;56.26
59190;BME280;50749;51.636;4.948;2023-02-13T04:45:14;103691.78;;;17.26;56.72
59190;BME280;50749;51.636;4.948;2023-02-13T04:47:39;103693.69;;;17.31;56.63
59190;BME280;50749;51.636;4.948;2023-02-13T04:50:06;103696.41;;;17.36;56.48
59190;BME280;50749;51.636;4.948;2023-02-13T04:52:32;103693.63;;;17.41;56.47
59190;BME280;50749;51.636;4.948;2023-02-13T04:54:58;103687.53;;;17.44;56.19
59190;BME280;50749;51.636;4.948;2023-02-13T04:57:23;103682.81;;;17.50;56.46
59190;BME280;50749;51.636;4.948;2023-02-13T04:59:49;103691.34;;;17.54;55.93
59190;BME280;50749;51.636;4.948;2023-02-13T05:02:15;103694.09;;;17.59;55.75
59190;BME280;50749;51.636;4.948;2023-02-13T05:04:41;103682.97;;;17.64;55.93
59190;BME280;50749;51.636;4.948;2023-02-13T05:07:06;103686.81;;;17.68;56.14
59190;BME280;50749;51.636;4.948;2023-02-13T05:09:32;103689.53;;;17.73;56.28
59190;BME280;50749;51.636;4.948;2023-02-13T05:11:58;103689.78;;;17.77;55.97
59190;BME280;50749;51.636;4.948;2023-02-13T05:14:24;103695.59;;;17.80;56.03
59190;BME280;50749;51.636;4.948;2023-02-13T05:16:50;103695.84;;;17.84;56.32
59190;BME280;50749;51.636;4.948;2023-02-13T05:19:16;103701.66;;;17.88;56.28
59190;BME280;50749;51.636;4.948;2023-02-13T05:21:41;103693.88;;;17.90;56.05
59190;BME280;50749;51.636;4.948;2023-02-13T05:24:26;103688.88;;;17.92;56.18
59190;BME280;50749;51.636;4.948;2023-02-13T05:26:52;103692.72;;;17.96;56.29
59190;BME280;50749;51.636;4.948;2023-02-13T05:29:18;103686.63;;;17.99;56.50
59190;BME280;50749;51.636;4.948;2023-02-13T05:31:48;103691.03;;;18.00;57.08
59190;BME280;50749;51.636;4.948;2023-02-13T05:34:15;103690.75;;;18.01;56.52
59190;BME280;50749;51.636;4.948;2023-02-13T05:36:41;103687.97;;;18.01;56.35
59190;BME280;50749;51.636;4.948;2023-02-13T05:39:07;103685.50;;;18.00;55.96
59190;BME280;50749;51.636;4.948;2023-02-13T05:41:33;103683.59;;;17.95;55.81
59190;BME280;50749;51.636;4.948;2023-02-13T05:43:59;103691.31;;;17.98;54.54
59190;BME280;50749;51.636;4.948;2023-02-13T05:46:24;103683.00;;;17.98;55.21
59190;BME280;50749;51.636;4.948;2023-02-13T05:48:51;103683.28;;;17.97;54.56
59190;BME280;50749;51.636;4.948;2023-02-13T05:51:20;103686.34;;;17.95;54.76
59190;BME280;50749;51.636;4.948;2023-02-13T05:53:46;103688.84;;;17.97;54.70
59190;BME280;50749;51.636;4.948;2023-02-13T05:56:12;103688.00;;;17.96;54.72
59190;BME280;50749;51.636;4.948;2023-02-13T05:58:38;103691.31;;;17.98;55.82
59190;BME280;50749;51.636;4.948;2023-02-13T06:01:04;103690.78;;;17.96;55.34
59190;BME280;50749;51.636;4.948;2023-02-13T06:03:31;103699.84;;;18.02;55.50
59190;BME280;50749;51.636;4.948;2023-02-13T06:05:57;103695.94;;;18.08;55.60
59190;BME280;50749;51.636;4.948;2023-02-13T06:08:24;103687.88;;;18.12;54.95
59190;BME280;50749;51.636;4.948;2023-02-13T06:10:50;103694.78;;;18.14;55.34
59190;BME280;50749;51.636;4.948;2023-02-13T06:13:16;103694.75;;;18.19;55.60
59190;BME280;50749;51.636;4.948;2023-02-13T06:15:42;103696.09;;;18.22;55.25
59190;BME280;50749;51.636;4.948;2023-02-13T06:18:09;103693.59;;;18.26;55.48
59190;BME280;50749;51.636;4.948;2023-02-13T06:20:35;103694.13;;;18.28;55.67
59190;BME280;50749;51.636;4.948;2023-02-13T06:23:01;103689.41;;;18.28;55.21
59190;BME280;50749;51.636;4.948;2023-02-13T06:25:27;103691.88;;;18.30;55.84
59190;BME280;50749;51.636;4.948;2023-02-13T06:27:54;103688.53;;;18.33;55.47
59190;BME280;50749;51.636;4.948;2023-02-13T06:30:20;103689.63;;;18.32;55.78
59190;BME280;50749;51.636;4.948;2023-02-13T06:32:47;103690.16;;;18.34;55.39
59190;BME280;50749;51.636;4.948;2023-02-13T06:35:13;103695.41;;;18.35;55.39
59190;BME280;50749;51.636;4.948;2023-02-13T06:37:41;103685.19;;;18.36;55.44
59190;BME280;50749;51.636;4.948;2023-02-13T06:40:09;103686.00;;;18.36;55.20
59190;BME280;50749;51.636;4.948;2023-02-13T06:42:35;103684.91;;;18.32;54.64
59190;BME280;50749;51.636;4.948;2023-02-13T06:45:01;103685.28;;;18.26;54.11
59190;BME280;50749;51.636;4.948;2023-02-13T06:47:27;103686.97;;;18.22;54.56
59190;BME280;50749;51.636;4.948;2023-02-13T06:49:53;103696.69;;;18.19;54.10
59190;BME280;50749;51.636;4.948;2023-02-13T06:52:19;103692.31;;;18.13;54.59
59190;BME280;50749;51.636;4.948;2023-02-13T06:54:48;103689.53;;;18.13;54.32
59190;BME280;50749;51.636;4.948;2023-02-13T06:57:14;103684.28;;;18.11;54.50
59190;BME280;50749;51.636;4.948;2023-02-13T06:59:40;103694.56;;;18.11;54.66
59190;BME280;50749;51.636;4.948;2023-02-13T07:02:11;103702.00;;;18.10;54.41
59190;BME280;50749;51.636;4.948;2023-02-13T07:04:37;103703.16;;;18.09;53.77
59190;BME280;50749;51.636;4.948;2023-02-13T07:07:03;103695.66;;;18.10;54.29
59190;BME280;50749;51.636;4.948;2023-02-13T07:09:30;103695.91;;;18.13;53.66
59190;BME280;50749;51.636;4.948;2023-02-13T07:11:56;103699.75;;;18.17;53.88
59190;BME280;50749;51.636;4.948;2023-02-13T07:14:22;103700.81;;;18.22;54.18
59190;BME280;50749;51.636;4.948;2023-02-13T07:16:48;103703.28;;;18.23;54.21
59190;BME280;50749;51.636;4.948;2023-02-13T07:19:14;103714.91;;;18.25;54.10
59190;BME280;50749;51.636;4.948;2023-02-13T07:21:40;103710.19;;;18.26;53.99
59190;BME280;50749;51.636;4.948;2023-02-13T07:24:06;103711.31;;;18.25;53.70
59190;BME280;50749;51.636;4.948;2023-02-13T07:26:32;103710.50;;;18.24;54.24
59190;BME280;50749;51.636;4.948;2023-02-13T07:28:57;103706.88;;;18.24;53.93
59190;BME280;50749;51.636;4.948;2023-02-13T07:31:23;103714.38;;;18.23;53.85
59190;BME280;50749;51.636;4.948;2023-02-13T07:33:49;103717.94;;;18.24;53.71
59190;BME280;50749;51.636;4.948;2023-02-13T07:36:15;103723.19;;;18.25;53.47
59190;BME280;50749;51.636;4.948;2023-02-13T07:38:41;103716.84;;;18.25;53.62
59190;BME280;50749;51.636;4.948;2023-02-13T07:41:07;103719.63;;;18.25;53.62
59190;BME280;50749;51.636;4.948;2023-02-13T07:43:33;103719.09;;;18.23;53.20
59190;BME280;50749;51.636;4.948;2023-02-13T07:46:01;103720.19;;;18.22;53.70
59190;BME280;50749;51.636;4.948;2023-02-13T07:48:28;103720.78;;;18.18;53.40
59190;BME280;50749;51.636;4.948;2023-02-13T07:50:59;103713.59;;;18.17;53.59
59190;BME280;50749;51.636;4.948;2023-02-13T07:53:25;103716.94;;;18.14;53.63
59190;BME280;50749;51.636;4.948;2023-02-13T07:55:51;103720.00;;;18.13;53.99
59190;BME280;50749;51.636;4.948;2023-02-13T07:58:17;103715.84;;;18.10;53.44
59190;BME280;50749;51.636;4.948;2023-02-13T08:00:43;103726.94;;;18.10;53.53
59190;BME280;50749;51.636;4.948;2023-02-13T08:03:09;103719.22;;;18.07;53.60
59190;BME280;50749;51.636;4.948;2023-02-13T08:05:36;103729.72;;;18.05;53.62
59190;BME280;50749;51.636;4.948;2023-02-13T08:08:01;103721.72;;;18.04;53.28
59190;BME280;50749;51.636;4.948;2023-02-13T08:10:27;103729.50;;;18.01;53.76
59190;BME280;50749;51.636;4.948;2023-02-13T08:13:12;103739.22;;;17.99;53.46
59190;BME280;50749;51.636;4.948;2023-02-13T08:15:39;103736.72;;;17.97;53.52
59190;BME280;50749;51.636;4.948;2023-02-13T08:18:05;103737.84;;;17.96;53.29
59190;BME280;50749;51.636;4.948;2023-02-13T08:20:31;103740.34;;;17.93;53.67
59190;BME280;50749;51.636;4.948;2023-02-13T08:23:09;103738.69;;;17.92;53.21
59190;BME280;50749;51.636;4.948;2023-02-13T08:25:37;103738.16;;;17.90;53.24
59190;BME280;50749;51.636;4.948;2023-02-13T08:28:03;103740.66;;;17.86;53.37
59190;BME280;50749;51.636;4.948;2023-02-13T08:30:29;103744.28;;;17.87;53.06
59190;BME280;50749;51.636;4.948;2023-02-13T08:32:55;103742.59;;;17.86;53.35
59190;BME280;50749;51.636;4.948;2023-02-13T08:35:22;103755.88;;;17.83;53.52
59190;BME280;50749;51.636;4.948;2023-02-13T08:37:54;103748.19;;;17.80;53.31
59190;BME280;50749;51.636;4.948;2023-02-13T08:40:20;103755.91;;;17.78;53.60
59190;BME280;50749;51.636;4.948;2023-02-13T08:42:46;103753.13;;;17.78;53.32
59190;BME280;50749;51.636;4.948;2023-02-13T08:45:12;103749.84;;;17.76;53.22
59190;BME280;50749;51.636;4.948;2023-02-13T08:47:38;103759.28;;;17.75;53.35
59190;BME280;50749;51.636;4.948;2023-02-13T08:50:05;103757.59;;;17.74;53.17
59190;BME280;50749;51.636;4.948;2023-02-13T08:52:31;103754.31;;;17.72;53.21
59190;BME280;50749;51.636;4.948;2023-02-13T08:54:57;103758.19;;;17.71;53.63
59190;BME280;50749;51.636;4.948;2023-02-13T08:57:22;103756.53;;;17.70;53.18
59190;BME280;50749;51.636;4.948;2023-02-13T08:59:48;103759.59;;;17.69;53.60
59190;BME280;50749;51.636;4.948;2023-02-13T09:02:14;103764.28;;;17.68;53.53
59190;BME280;50749;51.636;4.948;2023-02-13T09:04:40;103761.78;;;17.67;53.35
59190;BME280;50749;51.636;4.948;2023-02-13T09:07:06;103753.50;;;17.67;53.34
59190;BME280;50749;51.636;4.948;2023-02-13T09:09:32;103758.22;;;17.66;53.75
59190;BME280;50749;51.636;4.948;2023-02-13T09:11:57;103756.25;;;17.67;53.46
59190;BME280;50749;51.636;4.948;2023-02-13T09:14:23;103762.06;;;17.70;53.79
59190;BME280;50749;51.636;4.948;2023-02-13T09:16:49;103760.94;;;17.71;53.92
59190;BME280;50749;51.636;4.948;2023-02-13T09:19:15;103762.31;;;17.74;53.81
59190;BME280;50749;51.636;4.948;2023-02-13T09:21:41;103765.91;;;17.74;53.96
59190;BME280;50749;51.636;4.948;2023-02-13T09:24:10;103767.53;;;17.80;54.03
59190;BME280;50749;51.636;4.948;2023-02-13T09:26:36;103767.78;;;17.84;53.58
59190;BME280;50749;51.636;4.948;2023-02-13T09:29:02;103765.56;;;17.86;53.70
59190;BME280;50749;51.636;4.948;2023-02-13T09:31:28;103765.03;;;17.89;53.83
59190;BME280;50749;51.636;4.948;2023-02-13T09:33:54;103766.94;;;17.94;53.54
59190;BME280;50749;51.636;4.948;2023-02-13T09:36:22;103765.50;;;17.96;53.43
59190;BME280;50749;51.636;4.948;2023-02-13T09:38:53;103764.66;;;18.01;53.44
59190;BME280;50749;51.636;4.948;2023-02-13T09:41:25;103768.50;;;18.05;53.00
59190;BME280;50749;51.636;4.948;2023-02-13T09:44:01;103765.16;;;18.08;53.13
59190;BME280;50749;51.636;4.948;2023-02-13T09:46:35;103762.91;;;18.10;52.89
59190;BME280;50749;51.636;4.948;2023-02-13T09:49:12;103764.28;;;18.13;53.14
59190;BME280;50749;51.636;4.948;2023-02-13T09:51:41;103770.06;;;18.16;53.00
59190;BME280;50749;51.636;4.948;2023-02-13T09:54:13;103776.16;;;18.18;53.02
59190;BME280;50749;51.636;4.948;2023-02-13T09:59:36;103766.16;;;18.23;52.47
59190;BME280;50749;51.636;4.948;2023-02-13T10:05:40;103768.03;;;18.27;52.47
59190;BME280;50749;51.636;4.948;2023-02-13T10:16:40;103763.31;;;18.33;52.65
59190;BME280;50749;51.636;4.948;2023-02-13T10:19:46;103759.09;;;18.35;52.12
59190;BME280;50749;51.636;4.948;2023-02-13T10:22:18;103754.41;;;18.36;52.16
59190;BME280;50749;51.636;4.948;2023-02-13T10:25:03;103751.34;;;18.37;52.10
59190;BME280;50749;51.636;4.948;2023-02-13T10:28:06;103755.47;;;18.40;52.25
59190;BME280;50749;51.636;4.948;2023-02-13T10:33:33;103756.00;;;18.42;52.49
59190;BME280;50749;51.636;4.948;2023-02-13T10:36:25;103752.13;;;18.43;52.05
59190;BME280;50749;51.636;4.948;2023-02-13T10:38:56;103759.34;;;18.44;52.04
59190;BME280;50749;51.636;4.948;2023-02-13T10:52:43;103742.09;;;18.47;52.29
59190;BME280;50749;51.636;4.948;2023-02-13T10:55:27;103747.34;;;18.49;51.95
59190;BME280;50749;51.636;4.948;2023-02-13T11:01:02;103743.25;;;18.46;52.65
59190;BME280;50749;51.636;4.948;2023-02-13T11:03:29;103740.47;;;18.46;52.98
59190;BME280;50749;51.636;4.948;2023-02-13T11:05:57;103726.63;;;18.46;52.85
59190;BME280;50749;51.636;4.948;2023-02-13T11:08:38;103731.31;;;18.46;52.81
59190;BME280;50749;51.636;4.948;2023-02-13T11:11:31;103722.19;;;18.45;53.00
59190;BME280;50749;51.636;4.948;2023-02-13T11:14:18;103723.00;;;18.46;52.91
59190;BME280;50749;51.636;4.948;2023-02-13T11:16:58;103718.88;;;18.43;52.87
59190;BME280;50749;51.636;4.948;2023-02-13T11:19:45;103709.75;;;18.43;52.82
59190;BME280;50749;51.636;4.948;2023-02-13T11:22:16;103710.56;;;18.43;52.80
59190;BME280;50749;51.636;4.948;2023-02-13T11:24:58;103710.88;;;18.42;53.10
59190;BME280;50749;51.636;4.948;2023-02-13T11:27:34;103700.91;;;18.41;52.94
59190;BME280;50749;51.636;4.948;2023-02-13T11:30:29;103707.56;;;18.40;53.01
59190;BME280;50749;51.636;4.948;2023-02-13T11:35:40;103697.59;;;18.38;53.02
59190;BME280;50749;51.636;4.948;2023-02-13T11:40:45;103699.03;;;18.36;53.04
59190;BME280;50749;51.636;4.948;2023-02-13T11:43:23;103691.28;;;18.33;52.65
59190;BME280;50749;51.636;4.948;2023-02-13T11:46:20;103699.59;;;18.33;52.79
59190;BME280;50749;51.636;4.948;2023-02-13T11:49:04;103695.16;;;18.32;53.08
59190;BME280;50749;51.636;4.948;2023-02-13T11:51:45;103690.22;;;18.29;52.79
59190;BME280;50749;51.636;4.948;2023-02-13T11:54:25;103698.00;;;18.27;52.69
59190;BME280;50749;51.636;4.948;2023-02-13T11:56:56;103690.81;;;18.26;52.75
59190;BME280;50749;51.636;4.948;2023-02-13T11:59:24;103682.81;;;18.24;52.84
59190;BME280;50749;51.636;4.948;2023-02-13T12:02:13;103674.78;;;18.23;52.84
59190;BME280;50749;51.636;4.948;2023-02-13T12:04:39;103674.78;;;18.23;53.25
59190;BME280;50749;51.636;4.948;2023-02-13T12:09:39;103661.53;;;18.19;53.10
59190;BME280;50749;51.636;4.948;2023-02-13T12:12:05;103661.00;;;18.17;52.80
59190;BME280;50749;51.636;4.948;2023-02-13T12:14:37;103659.31;;;18.16;52.71
59190;BME280;50749;51.636;4.948;2023-02-13T12:17:11;103664.88;;;18.16;53.19
59190;BME280;50749;51.636;4.948;2023-02-13T12:19:44;103663.50;;;18.14;52.63
59190;BME280;50749;51.636;4.948;2023-02-13T12:22:30;103665.44;;;18.13;52.69
59190;BME280;50749;51.636;4.948;2023-02-13T12:25:10;103652.72;;;18.12;52.91
59190;BME280;50749;51.636;4.948;2023-02-13T12:28:09;103653.56;;;18.13;52.99
59190;BME280;50749;51.636;4.948;2023-02-13T12:47:18;103632.31;;;18.03;52.69
59190;BME280;50749;51.636;4.948;2023-02-13T12:56:04;103632.09;;;17.99;52.70
59190;BME280;50749;51.636;4.948;2023-02-13T13:04:19;103623.53;;;17.96;53.03
59190;BME280;50749;51.636;4.948;2023-02-13T13:12:49;103613.03;;;17.93;52.78
59190;BME280;50749;51.636;4.948;2023-02-13T13:15:37;103609.47;;;17.92;52.96
59190;BME280;50749;51.636;4.948;2023-02-13T13:26:41;103603.13;;;17.87;53.05
59190;BME280;50749;51.636;4.948;2023-02-13T13:29:16;103600.38;;;17.87;52.58
59190;BME280;50749;51.636;4.948;2023-02-13T13:31:53;103598.69;;;17.86;52.78
59190;BME280;50749;51.636;4.948;2023-02-13T13:34:23;103599.00;;;17.84;52.85
59190;BME280;50749;51.636;4.948;2023-02-13T13:40:04;103599.28;;;17.82;52.87
59190;BME280;50749;51.636;4.948;2023-02-13T13:43:32;103591.25;;;17.81;52.49
59190;BME280;50749;51.636;4.948;2023-02-13T13:45:46;103593.22;;;17.80;52.80
59190;BME280;50749;51.636;4.948;2023-02-13T13:51:11;103592.66;;;17.78;52.91
59190;BME280;50749;51.636;4.948;2023-02-13T14:05:07;103583.28;;;17.74;52.94
59190;BME280;50749;51.636;4.948;2023-02-13T14:07:36;103574.47;;;17.72;52.57
59190;BME280;50749;51.636;4.948;2023-02-13T14:10:04;103569.75;;;17.73;52.76
59190;BME280;50749;51.636;4.948;2023-02-13T14:14:57;103573.34;;;17.73;52.64
59190;BME280;50749;51.636;4.948;2023-02-13T14:22:55;103556.78;;;17.68;52.55
59190;BME280;50749;51.636;4.948;2023-02-13T14:25:26;103557.34;;;17.70;52.76
59190;BME280;50749;51.636;4.948;2023-02-13T14:27:57;103550.16;;;17.69;52.44
59190;BME280;50749;51.636;4.948;2023-02-13T14:30:25;103553.19;;;17.68;52.46
59190;BME280;50749;51.636;4.948;2023-02-13T14:32:52;103546.84;;;17.67;52.39
59190;BME280;50749;51.636;4.948;2023-02-13T14:35:27;103555.16;;;17.67;52.79
59190;BME280;50749;51.636;4.948;2023-02-13T14:37:57;103561.78;;;17.66;52.57
59190;BME280;50749;51.636;4.948;2023-02-13T14:43:02;103554.31;;;17.67;52.94
59190;BME280;50749;51.636;4.948;2023-02-13T14:45:35;103549.91;;;17.66;52.69
59190;BME280;50749;51.636;4.948;2023-02-13T14:48:07;103550.72;;;17.66;52.55
59190;BME280;50749;51.636;4.948;2023-02-13T14:50:46;103547.97;;;17.66;52.81
59190;BME280;50749;51.636;4.948;2023-02-13T14:53:24;103546.28;;;17.65;52.58
59190;BME280;50749;51.636;4.948;2023-02-13T14:56:11;103543.53;;;17.65;52.58
59190;BME280;50749;51.636;4.948;2023-02-13T14:59:15;103539.13;;;17.64;52.91
59190;BME280;50749;51.636;4.948;2023-02-13T15:01:52;103529.16;;;17.63;52.42
59190;BME280;50749;51.636;4.948;2023-02-13T15:04:43;103532.22;;;17.61;52.67
59190;BME280;50749;51.636;4.948;2023-02-13T15:07:21;103529.75;;;17.60;52.35
59190;BME280;50749;51.636;4.948;2023-02-13T15:10:01;103530.59;;;17.60;52.64
59190;BME280;50749;51.636;4.948;2023-02-13T15:12:31;103526.16;;;17.59;53.64
59190;BME280;50749;51.636;4.948;2023-02-13T15:14:58;103519.28;;;17.57;53.79
59190;BME280;50749;51.636;4.948;2023-02-13T15:17:32;103527.28;;;17.58;53.49
59190;BME280;50749;51.636;4.948;2023-02-13T15:20:18;103525.06;;;17.60;53.90
59190;BME280;50749;51.636;4.948;2023-02-13T15:22:47;103525.28;;;17.64;53.43
59190;BME280;50749;51.636;4.948;2023-02-13T15:25:23;103518.06;;;17.68;53.20
59190;BME280;50749;51.636;4.948;2023-02-13T15:27:51;103516.38;;;17.72;52.88
59190;BME280;50749;51.636;4.948;2023-02-13T15:30:26;103508.81;;;17.78;53.26
59190;BME280;50749;51.636;4.948;2023-02-13T15:32:56;103517.38;;;17.81;53.15